sensor_id;sensor_type;location;lat;lon;timestamp;temperature;humidity
13682;DHT22;6913;49.892;7.936;2022-09-09T00:01:03;16.30;99.90
13682;DHT22;6913;49.892;7.936;2022-09-09T00:03:37;16.30;99.90
13682;DHT22;6913;49.892;7.936;2022-09-09T00:06:14;16.30;99.90
13682;DHT22;6913;49.892;7.936;2022-09-09T00:08:52;16.30;99.90
13682;DHT22;6913;49.892;7.936;2022-09-09T00:11:28;15.70;99.90
13682;DHT22;6913;49.892;7.936;2022-09-09T00:14:00;15.70;99.90
13682;DHT22;6913;49.892;7.936;2022-09-09T00:16:32;15.80;99.90
13682;DHT22;6913;49.892;7.936;2022-09-09T00:19:05;15.80;99.90
13682;DHT22;6913;49.892;7.936;2022-09-09T00:21:36;15.80;99.90
13682;DHT22;6913;49.892;7.936;2022-09-09T00:24:10;15.90;99.90
13682;DHT22;6913;49.892;7.936;2022-09-09T00:26:47;15.80;99.90
13682;DHT22;6913;49.892;7.936;2022-09-09T00:29:21;15.90;99.90
13682;DHT22;6913;49.892;7.936;2022-09-09T00:31:54;15.90;99.90
13682;DHT22;6913;49.892;7.936;2022-09-09T00:34:23;15.80;99.90
13682;DHT22;6913;49.892;7.936;2022-09-09T00:36:54;15.70;99.90
13682;DHT22;6913;49.892;7.936;2022-09-09T00:39:32;15.60;99.90
13682;DHT22;6913;49.892;7.936;2022-09-09T00:42:15;15.70;99.90
13682;DHT22;6913;49.892;7.936;2022-09-09T00:44:56;15.70;99.90
13682;DHT22;6913;49.892;7.936;2022-09-09T00:47:39;15.60;99.90
13682;DHT22;6913;49.892;7.936;2022-09-09T00:53:11;15.40;99.90
13682;DHT22;6913;49.892;7.936;2022-09-09T00:55:48;15.40;99.90
13682;DHT22;6913;49.892;7.936;2022-09-09T00:58:15;15.40;99.90
13682;DHT22;6913;49.892;7.936;2022-09-09T01:00:44;15.30;99.90
13682;DHT22;6913;49.892;7.936;2022-09-09T01:03:25;15.30;99.90
13682;DHT22;6913;49.892;7.936;2022-09-09T01:06:02;15.30;99.90
13682;DHT22;6913;49.892;7.936;2022-09-09T01:08:53;15.30;99.90
13682;DHT22;6913;49.892;7.936;2022-09-09T01:11:26;15.30;99.90
13682;DHT22;6913;49.892;7.936;2022-09-09T01:14:01;15.30;99.90
13682;DHT22;6913;49.892;7.936;2022-09-09T01:16:35;15.20;99.90
13682;DHT22;6913;49.892;7.936;2022-09-09T01:19:03;15.20;99.90
13682;DHT22;6913;49.892;7.936;2022-09-09T01:21:39;15.20;99.90
13682;DHT22;6913;49.892;7.936;2022-09-09T01:24:22;15.20;99.90
13682;DHT22;6913;49.892;7.936;2022-09-09T01:26:54;15.40;99.90
13682;DHT22;6913;49.892;7.936;2022-09-09T01:29:22;15.20;99.90
13682;DHT22;6913;49.892;7.936;2022-09-09T01:31:54;15.20;99.90
13682;DHT22;6913;49.892;7.936;2022-09-09T01:34:25;15.30;99.90
13682;DHT22;6913;49.892;7.936;2022-09-09T01:36:57;15.10;99.90
13682;DHT22;6913;49.892;7.936;2022-09-09T01:39:30;15.00;99.90
13682;DHT22;6913;49.892;7.936;2022-09-09T01:42:05;15.00;99.90
13682;DHT22;6913;49.892;7.936;2022-09-09T01:44:33;14.80;99.90
13682;DHT22;6913;49.892;7.936;2022-09-09T01:47:01;14.90;99.90
13682;DHT22;6913;49.892;7.936;2022-09-09T01:49:28;14.70;99.90
13682;DHT22;6913;49.892;7.936;2022-09-09T01:51:55;14.70;99.90
13682;DHT22;6913;49.892;7.936;2022-09-09T01:54:25;14.70;99.90
13682;DHT22;6913;49.892;7.936;2022-09-09T01:57:03;14.80;99.90
13682;DHT22;6913;49.892;7.936;2022-09-09T01:59:45;14.80;99.90
13682;DHT22;6913;49.892;7.936;2022-09-09T02:02:17;14.70;99.90
13682;DHT22;6913;49.892;7.936;2022-09-09T02:04:47;14.70;99.90
13682;DHT22;6913;49.892;7.936;2022-09-09T02:07:38;14.80;99.90
13682;DHT22;6913;49.892;7.936;2022-09-09T02:10:10;14.60;99.90
13682;DHT22;6913;49.892;7.936;2022-09-09T02:12:41;14.60;99.90
13682;DHT22;6913;49.892;7.936;2022-09-09T02:15:20;14.60;99.90
13682;DHT22;6913;49.892;7.936;2022-09-09T02:17:51;14.70;99.90
13682;DHT22;6913;49.892;7.936;2022-09-09T02:20:19;14.70;99.90
13682;DHT22;6913;49.892;7.936;2022-09-09T02:22:49;14.70;99.90
13682;DHT22;6913;49.892;7.936;2022-09-09T02:25:20;14.60;99.90
13682;DHT22;6913;49.892;7.936;2022-09-09T02:27:50;14.60;99.90
13682;DHT22;6913;49.892;7.936;2022-09-09T02:30:19;14.40;99.90
13682;DHT22;6913;49.892;7.936;2022-09-09T02:32:48;14.40;99.90
13682;DHT22;6913;49.892;7.936;2022-09-09T02:35:19;14.40;99.90
13682;DHT22;6913;49.892;7.936;2022-09-09T02:37:49;14.20;99.90
13682;DHT22;6913;49.892;7.936;2022-09-09T02:40:17;14.20;99.90
13682;DHT22;6913;49.892;7.936;2022-09-09T02:42:45;14.20;99.90
13682;DHT22;6913;49.892;7.936;2022-09-09T02:45:15;14.20;99.90
13682;DHT22;6913;49.892;7.936;2022-09-09T02:47:50;14.20;99.90
13682;DHT22;6913;49.892;7.936;2022-09-09T02:50:23;14.20;99.90
13682;DHT22;6913;49.892;7.936;2022-09-09T02:53:00;14.20;99.90
13682;DHT22;6913;49.892;7.936;2022-09-09T02:55:36;14.30;99.90
13682;DHT22;6913;49.892;7.936;2022-09-09T02:58:04;14.40;99.90
13682;DHT22;6913;49.892;7.936;2022-09-09T03:00:33;14.50;99.90
13682;DHT22;6913;49.892;7.936;2022-09-09T03:03:03;14.50;99.90
13682;DHT22;6913;49.892;7.936;2022-09-09T03:05:30;14.50;99.90
13682;DHT22;6913;49.892;7.936;2022-09-09T03:07:57;14.60;99.90
13682;DHT22;6913;49.892;7.936;2022-09-09T03:10:24;14.60;99.90
13682;DHT22;6913;49.892;7.936;2022-09-09T03:12:51;14.50;99.90
13682;DHT22;6913;49.892;7.936;2022-09-09T03:15:17;14.50;99.90
13682;DHT22;6913;49.892;7.936;2022-09-09T03:17:44;14.40;99.90
13682;DHT22;6913;49.892;7.936;2022-09-09T03:20:15;14.40;99.90
13682;DHT22;6913;49.892;7.936;2022-09-09T03:22:41;14.50;99.90
13682;DHT22;6913;49.892;7.936;2022-09-09T03:25:10;14.40;99.90
13682;DHT22;6913;49.892;7.936;2022-09-09T03:27:37;14.50;99.90
13682;DHT22;6913;49.892;7.936;2022-09-09T03:30:04;14.50;99.90
13682;DHT22;6913;49.892;7.936;2022-09-09T03:32:31;14.50;99.90
13682;DHT22;6913;49.892;7.936;2022-09-09T03:34:58;14.30;99.90
13682;DHT22;6913;49.892;7.936;2022-09-09T03:37:26;14.40;99.90
13682;DHT22;6913;49.892;7.936;2022-09-09T03:39:53;14.40;99.90
13682;DHT22;6913;49.892;7.936;2022-09-09T03:42:21;14.40;99.90
13682;DHT22;6913;49.892;7.936;2022-09-09T03:44:48;14.30;99.90
13682;DHT22;6913;49.892;7.936;2022-09-09T03:47:17;14.20;99.90
13682;DHT22;6913;49.892;7.936;2022-09-09T03:49:44;14.20;99.90
13682;DHT22;6913;49.892;7.936;2022-09-09T03:52:12;14.40;99.90
13682;DHT22;6913;49.892;7.936;2022-09-09T03:54:40;14.50;99.90
13682;DHT22;6913;49.892;7.936;2022-09-09T03:57:08;14.50;99.90
13682;DHT22;6913;49.892;7.936;2022-09-09T03:59:35;14.40;99.90
13682;DHT22;6913;49.892;7.936;2022-09-09T04:02:02;14.40;99.90
13682;DHT22;6913;49.892;7.936;2022-09-09T04:04:29;14.50;99.90
13682;DHT22;6913;49.892;7.936;2022-09-09T04:06:56;14.60;99.90
13682;DHT22;6913;49.892;7.936;2022-09-09T04:09:22;14.60;99.90
13682;DHT22;6913;49.892;7.936;2022-09-09T04:11:51;14.70;99.90
13682;DHT22;6913;49.892;7.936;2022-09-09T04:14:18;14.70;99.90
13682;DHT22;6913;49.892;7.936;2022-09-09T04:16:45;14.70;99.90
13682;DHT22;6913;49.892;7.936;2022-09-09T04:19:12;14.60;99.90
13682;DHT22;6913;49.892;7.936;2022-09-09T04:21:40;14.60;99.90
13682;DHT22;6913;49.892;7.936;2022-09-09T04:24:07;14.70;99.90
13682;DHT22;6913;49.892;7.936;2022-09-09T04:26:35;14.70;99.90
13682;DHT22;6913;49.892;7.936;2022-09-09T04:29:04;14.70;99.90
13682;DHT22;6913;49.892;7.936;2022-09-09T04:31:33;14.70;99.90
13682;DHT22;6913;49.892;7.936;2022-09-09T04:34:00;14.70;99.90
13682;DHT22;6913;49.892;7.936;2022-09-09T04:36:30;14.70;99.90
13682;DHT22;6913;49.892;7.936;2022-09-09T04:38:58;14.60;99.90
13682;DHT22;6913;49.892;7.936;2022-09-09T04:41:25;14.60;99.90
13682;DHT22;6913;49.892;7.936;2022-09-09T04:43:52;14.50;99.90
13682;DHT22;6913;49.892;7.936;2022-09-09T04:46:20;14.50;99.90
13682;DHT22;6913;49.892;7.936;2022-09-09T04:48:48;14.50;99.90
13682;DHT22;6913;49.892;7.936;2022-09-09T04:51:15;14.40;99.90
13682;DHT22;6913;49.892;7.936;2022-09-09T04:53:42;14.40;99.90
13682;DHT22;6913;49.892;7.936;2022-09-09T04:56:10;14.40;99.90
13682;DHT22;6913;49.892;7.936;2022-09-09T04:58:38;14.50;99.90
13682;DHT22;6913;49.892;7.936;2022-09-09T05:01:08;14.40;99.90
13682;DHT22;6913;49.892;7.936;2022-09-09T05:03:36;14.40;99.90
13682;DHT22;6913;49.892;7.936;2022-09-09T05:06:05;14.50;99.90
13682;DHT22;6913;49.892;7.936;2022-09-09T05:08:34;14.60;99.90
13682;DHT22;6913;49.892;7.936;2022-09-09T05:11:01;14.60;99.90
13682;DHT22;6913;49.892;7.936;2022-09-09T05:13:29;14.70;99.90
13682;DHT22;6913;49.892;7.936;2022-09-09T05:15:57;14.70;99.90
13682;DHT22;6913;49.892;7.936;2022-09-09T05:18:24;14.80;99.90
13682;DHT22;6913;49.892;7.936;2022-09-09T05:20:52;14.80;99.90
13682;DHT22;6913;49.892;7.936;2022-09-09T05:23:24;14.80;99.90
13682;DHT22;6913;49.892;7.936;2022-09-09T05:25:55;14.80;99.90
13682;DHT22;6913;49.892;7.936;2022-09-09T05:28:23;14.80;99.90
13682;DHT22;6913;49.892;7.936;2022-09-09T05:30:58;14.90;99.90
13682;DHT22;6913;49.892;7.936;2022-09-09T05:33:26;14.80;99.90
13682;DHT22;6913;49.892;7.936;2022-09-09T05:36:02;14.70;99.90
13682;DHT22;6913;49.892;7.936;2022-09-09T05:38:30;14.50;99.90
13682;DHT22;6913;49.892;7.936;2022-09-09T05:40:57;14.60;99.90
13682;DHT22;6913;49.892;7.936;2022-09-09T05:43:25;14.60;99.90
13682;DHT22;6913;49.892;7.936;2022-09-09T05:46:00;14.70;99.90
13682;DHT22;6913;49.892;7.936;2022-09-09T05:48:28;14.80;99.90
13682;DHT22;6913;49.892;7.936;2022-09-09T05:50:56;15.10;99.90
13682;DHT22;6913;49.892;7.936;2022-09-09T05:53:24;15.10;99.90
13682;DHT22;6913;49.892;7.936;2022-09-09T05:55:58;15.60;99.90
13682;DHT22;6913;49.892;7.936;2022-09-09T05:58:25;15.80;99.90
13682;DHT22;6913;49.892;7.936;2022-09-09T06:00:51;15.70;99.90
13682;DHT22;6913;49.892;7.936;2022-09-09T06:03:19;16.00;99.90
13682;DHT22;6913;49.892;7.936;2022-09-09T06:05:57;16.50;99.90
13682;DHT22;6913;49.892;7.936;2022-09-09T06:08:25;16.90;99.90
13682;DHT22;6913;49.892;7.936;2022-09-09T06:10:52;17.30;99.90
13682;DHT22;6913;49.892;7.936;2022-09-09T06:13:19;17.60;99.90
13682;DHT22;6913;49.892;7.936;2022-09-09T06:15:49;17.60;99.90
13682;DHT22;6913;49.892;7.936;2022-09-09T06:18:16;17.50;99.90
13682;DHT22;6913;49.892;7.936;2022-09-09T06:20:52;17.30;99.90
13682;DHT22;6913;49.892;7.936;2022-09-09T06:23:19;17.20;99.90
13682;DHT22;6913;49.892;7.936;2022-09-09T06:25:47;17.50;99.90
13682;DHT22;6913;49.892;7.936;2022-09-09T06:28:14;17.20;99.90
13682;DHT22;6913;49.892;7.936;2022-09-09T06:30:41;17.30;99.90
13682;DHT22;6913;49.892;7.936;2022-09-09T06:33:08;17.70;99.90
13682;DHT22;6913;49.892;7.936;2022-09-09T06:35:35;18.10;99.90
13682;DHT22;6913;49.892;7.936;2022-09-09T06:38:02;18.70;99.90
13682;DHT22;6913;49.892;7.936;2022-09-09T06:40:29;19.70;99.90
13682;DHT22;6913;49.892;7.936;2022-09-09T06:43:00;19.80;99.90
13682;DHT22;6913;49.892;7.936;2022-09-09T06:45:27;20.10;99.90
13682;DHT22;6913;49.892;7.936;2022-09-09T06:47:55;20.10;99.90
13682;DHT22;6913;49.892;7.936;2022-09-09T06:50:22;20.50;99.90
13682;DHT22;6913;49.892;7.936;2022-09-09T06:52:49;20.40;99.90
13682;DHT22;6913;49.892;7.936;2022-09-09T06:55:15;20.80;99.90
13682;DHT22;6913;49.892;7.936;2022-09-09T06:57:43;21.00;99.90
13682;DHT22;6913;49.892;7.936;2022-09-09T07:00:13;21.10;99.90
13682;DHT22;6913;49.892;7.936;2022-09-09T07:02:40;21.00;99.90
13682;DHT22;6913;49.892;7.936;2022-09-09T07:05:07;20.80;99.90
13682;DHT22;6913;49.892;7.936;2022-09-09T07:07:34;20.30;99.90
13682;DHT22;6913;49.892;7.936;2022-09-09T07:10:02;20.30;99.90
13682;DHT22;6913;49.892;7.936;2022-09-09T07:12:30;20.20;99.90
13682;DHT22;6913;49.892;7.936;2022-09-09T07:14:56;20.20;99.90
13682;DHT22;6913;49.892;7.936;2022-09-09T07:17:24;19.90;99.90
13682;DHT22;6913;49.892;7.936;2022-09-09T07:19:51;19.90;99.90
13682;DHT22;6913;49.892;7.936;2022-09-09T07:22:18;19.70;99.90
13682;DHT22;6913;49.892;7.936;2022-09-09T07:24:45;19.70;99.90
13682;DHT22;6913;49.892;7.936;2022-09-09T07:27:12;19.70;99.90
13682;DHT22;6913;49.892;7.936;2022-09-09T07:29:39;20.20;99.90
13682;DHT22;6913;49.892;7.936;2022-09-09T07:32:05;20.50;99.90
13682;DHT22;6913;49.892;7.936;2022-09-09T07:34:34;20.40;99.90
13682;DHT22;6913;49.892;7.936;2022-09-09T07:37:00;21.00;99.90
13682;DHT22;6913;49.892;7.936;2022-09-09T07:39:27;21.10;99.90
13682;DHT22;6913;49.892;7.936;2022-09-09T07:41:54;21.00;99.90
13682;DHT22;6913;49.892;7.936;2022-09-09T07:44:22;21.50;99.90
13682;DHT22;6913;49.892;7.936;2022-09-09T07:46:50;21.60;99.90
13682;DHT22;6913;49.892;7.936;2022-09-09T07:49:17;21.60;99.90
13682;DHT22;6913;49.892;7.936;2022-09-09T07:51:46;21.80;99.90
13682;DHT22;6913;49.892;7.936;2022-09-09T07:54:16;21.80;99.90
13682;DHT22;6913;49.892;7.936;2022-09-09T07:56:46;21.70;99.90
13682;DHT22;6913;49.892;7.936;2022-09-09T07:59:13;21.80;99.90
13682;DHT22;6913;49.892;7.936;2022-09-09T08:01:42;21.50;99.90
13682;DHT22;6913;49.892;7.936;2022-09-09T08:04:10;21.20;99.90
13682;DHT22;6913;49.892;7.936;2022-09-09T08:06:43;21.20;99.90
13682;DHT22;6913;49.892;7.936;2022-09-09T08:09:14;21.00;99.90
13682;DHT22;6913;49.892;7.936;2022-09-09T08:11:41;21.40;99.90
13682;DHT22;6913;49.892;7.936;2022-09-09T08:14:10;21.10;99.90
13682;DHT22;6913;49.892;7.936;2022-09-09T08:16:41;20.70;99.90
13682;DHT22;6913;49.892;7.936;2022-09-09T08:19:08;20.80;99.90
13682;DHT22;6913;49.892;7.936;2022-09-09T08:21:37;20.50;99.90
13682;DHT22;6913;49.892;7.936;2022-09-09T08:24:05;20.70;99.90
13682;DHT22;6913;49.892;7.936;2022-09-09T08:26:35;21.30;99.90
13682;DHT22;6913;49.892;7.936;2022-09-09T08:29:04;21.70;99.90
13682;DHT22;6913;49.892;7.936;2022-09-09T08:31:34;21.50;99.90
13682;DHT22;6913;49.892;7.936;2022-09-09T08:34:01;21.30;99.90
13682;DHT22;6913;49.892;7.936;2022-09-09T08:36:31;21.40;99.90
13682;DHT22;6913;49.892;7.936;2022-09-09T08:38:59;22.00;99.90
13682;DHT22;6913;49.892;7.936;2022-09-09T08:41:41;22.50;99.90
13682;DHT22;6913;49.892;7.936;2022-09-09T08:44:17;22.20;99.90
13682;DHT22;6913;49.892;7.936;2022-09-09T08:46:50;21.80;99.90
13682;DHT22;6913;49.892;7.936;2022-09-09T08:49:39;22.00;99.90
13682;DHT22;6913;49.892;7.936;2022-09-09T08:52:15;21.40;99.90
13682;DHT22;6913;49.892;7.936;2022-09-09T08:54:44;21.80;99.90
13682;DHT22;6913;49.892;7.936;2022-09-09T08:57:20;22.80;99.90
13682;DHT22;6913;49.892;7.936;2022-09-09T08:59:49;23.00;99.90
13682;DHT22;6913;49.892;7.936;2022-09-09T09:02:20;23.00;99.90
13682;DHT22;6913;49.892;7.936;2022-09-09T09:04:58;23.40;99.90
13682;DHT22;6913;49.892;7.936;2022-09-09T09:10:29;23.00;99.90
13682;DHT22;6913;49.892;7.936;2022-09-09T09:13:03;22.90;99.90
13682;DHT22;6913;49.892;7.936;2022-09-09T09:15:33;22.80;99.90
13682;DHT22;6913;49.892;7.936;2022-09-09T09:18:02;22.60;99.90
13682;DHT22;6913;49.892;7.936;2022-09-09T09:20:35;22.50;99.90
13682;DHT22;6913;49.892;7.936;2022-09-09T09:23:05;22.30;99.90
13682;DHT22;6913;49.892;7.936;2022-09-09T09:25:35;22.70;99.90
13682;DHT22;6913;49.892;7.936;2022-09-09T09:28:13;22.50;99.90
13682;DHT22;6913;49.892;7.936;2022-09-09T09:30:45;23.10;99.90
13682;DHT22;6913;49.892;7.936;2022-09-09T09:33:19;23.20;99.90
13682;DHT22;6913;49.892;7.936;2022-09-09T09:35:49;22.90;99.90
13682;DHT22;6913;49.892;7.936;2022-09-09T09:38:17;22.70;99.90
13682;DHT22;6913;49.892;7.936;2022-09-09T09:40:49;22.50;99.90
13682;DHT22;6913;49.892;7.936;2022-09-09T09:43:23;22.50;99.90
13682;DHT22;6913;49.892;7.936;2022-09-09T09:45:51;22.40;99.90
13682;DHT22;6913;49.892;7.936;2022-09-09T09:48:18;22.70;99.90
13682;DHT22;6913;49.892;7.936;2022-09-09T09:50:50;22.80;99.90
13682;DHT22;6913;49.892;7.936;2022-09-09T09:53:21;23.50;99.90
13682;DHT22;6913;49.892;7.936;2022-09-09T09:55:53;23.90;99.90
13682;DHT22;6913;49.892;7.936;2022-09-09T09:58:22;23.90;99.90
13682;DHT22;6913;49.892;7.936;2022-09-09T10:00:51;23.60;99.90
13682;DHT22;6913;49.892;7.936;2022-09-09T10:03:22;23.50;99.90
13682;DHT22;6913;49.892;7.936;2022-09-09T10:05:50;23.90;99.90
13682;DHT22;6913;49.892;7.936;2022-09-09T10:08:17;24.20;99.90
13682;DHT22;6913;49.892;7.936;2022-09-09T10:11:06;24.50;99.90
13682;DHT22;6913;49.892;7.936;2022-09-09T10:13:48;24.50;99.90
13682;DHT22;6913;49.892;7.936;2022-09-09T10:16:29;24.10;99.90
13682;DHT22;6913;49.892;7.936;2022-09-09T10:19:00;24.20;99.90
13682;DHT22;6913;49.892;7.936;2022-09-09T10:21:44;23.90;99.90
13682;DHT22;6913;49.892;7.936;2022-09-09T10:27:32;24.10;99.90
13682;DHT22;6913;49.892;7.936;2022-09-09T10:30:14;24.40;99.90
13682;DHT22;6913;49.892;7.936;2022-09-09T10:33:01;24.40;99.90
13682;DHT22;6913;49.892;7.936;2022-09-09T10:35:33;24.20;99.90
13682;DHT22;6913;49.892;7.936;2022-09-09T10:38:14;24.40;99.90
13682;DHT22;6913;49.892;7.936;2022-09-09T10:40:58;24.50;99.90
13682;DHT22;6913;49.892;7.936;2022-09-09T10:43:39;25.00;99.90
13682;DHT22;6913;49.892;7.936;2022-09-09T10:46:17;24.90;99.90
13682;DHT22;6913;49.892;7.936;2022-09-09T10:48:58;24.90;99.90
13682;DHT22;6913;49.892;7.936;2022-09-09T10:51:36;24.80;99.90
13682;DHT22;6913;49.892;7.936;2022-09-09T10:54:18;24.60;99.90
13682;DHT22;6913;49.892;7.936;2022-09-09T10:56:55;24.40;99.90
13682;DHT22;6913;49.892;7.936;2022-09-09T10:59:27;24.00;99.90
13682;DHT22;6913;49.892;7.936;2022-09-09T11:02:27;24.20;99.90
13682;DHT22;6913;49.892;7.936;2022-09-09T11:05:05;24.70;99.90
13682;DHT22;6913;49.892;7.936;2022-09-09T11:07:54;24.60;99.90
13682;DHT22;6913;49.892;7.936;2022-09-09T11:10:38;24.20;99.90
13682;DHT22;6913;49.892;7.936;2022-09-09T11:13:23;24.30;99.90
13682;DHT22;6913;49.892;7.936;2022-09-09T11:16:16;24.70;99.90
13682;DHT22;6913;49.892;7.936;2022-09-09T11:18:47;24.70;99.90
13682;DHT22;6913;49.892;7.936;2022-09-09T11:21:18;24.70;99.90
13682;DHT22;6913;49.892;7.936;2022-09-09T11:23:50;24.90;99.90
13682;DHT22;6913;49.892;7.936;2022-09-09T11:26:37;25.20;99.90
13682;DHT22;6913;49.892;7.936;2022-09-09T11:29:20;24.80;99.90
13682;DHT22;6913;49.892;7.936;2022-09-09T11:32:02;24.00;99.90
13682;DHT22;6913;49.892;7.936;2022-09-09T11:34:42;23.00;99.90
13682;DHT22;6913;49.892;7.936;2022-09-09T11:37:25;22.90;99.90
13682;DHT22;6913;49.892;7.936;2022-09-09T11:40:14;22.40;99.90
13682;DHT22;6913;49.892;7.936;2022-09-09T11:42:42;22.10;99.90
13682;DHT22;6913;49.892;7.936;2022-09-09T11:45:21;21.70;99.90
13682;DHT22;6913;49.892;7.936;2022-09-09T11:47:53;21.60;99.90
13682;DHT22;6913;49.892;7.936;2022-09-09T11:50:33;21.30;99.90
13682;DHT22;6913;49.892;7.936;2022-09-09T11:53:17;21.50;99.90
13682;DHT22;6913;49.892;7.936;2022-09-09T11:55:46;21.20;99.90
13682;DHT22;6913;49.892;7.936;2022-09-09T11:58:17;20.70;99.90
13682;DHT22;6913;49.892;7.936;2022-09-09T12:00:47;20.40;99.90
13682;DHT22;6913;49.892;7.936;2022-09-09T12:03:33;19.90;99.90
13682;DHT22;6913;49.892;7.936;2022-09-09T12:06:13;19.40;99.90
13682;DHT22;6913;49.892;7.936;2022-09-09T12:08:43;19.40;99.90
13682;DHT22;6913;49.892;7.936;2022-09-09T12:11:11;19.70;99.90
13682;DHT22;6913;49.892;7.936;2022-09-09T12:13:37;19.50;99.90
13682;DHT22;6913;49.892;7.936;2022-09-09T12:16:04;19.70;99.90
13682;DHT22;6913;49.892;7.936;2022-09-09T12:18:33;20.00;99.90
13682;DHT22;6913;49.892;7.936;2022-09-09T12:21:12;20.40;99.90
13682;DHT22;6913;49.892;7.936;2022-09-09T12:23:46;20.70;99.90
13682;DHT22;6913;49.892;7.936;2022-09-09T12:26:25;21.00;99.90
13682;DHT22;6913;49.892;7.936;2022-09-09T12:29:01;21.10;99.90
13682;DHT22;6913;49.892;7.936;2022-09-09T12:31:35;21.60;99.90
13682;DHT22;6913;49.892;7.936;2022-09-09T12:34:10;22.10;99.90
13682;DHT22;6913;49.892;7.936;2022-09-09T12:36:40;21.70;99.90
13682;DHT22;6913;49.892;7.936;2022-09-09T12:39:16;22.00;99.90
13682;DHT22;6913;49.892;7.936;2022-09-09T12:41:51;22.00;99.90
13682;DHT22;6913;49.892;7.936;2022-09-09T12:44:23;22.20;99.90
13682;DHT22;6913;49.892;7.936;2022-09-09T12:46:51;22.20;99.90
13682;DHT22;6913;49.892;7.936;2022-09-09T12:49:31;22.40;99.90
13682;DHT22;6913;49.892;7.936;2022-09-09T12:52:04;23.10;99.90
13682;DHT22;6913;49.892;7.936;2022-09-09T12:54:34;22.80;99.90
13682;DHT22;6913;49.892;7.936;2022-09-09T12:57:01;22.90;99.90
13682;DHT22;6913;49.892;7.936;2022-09-09T12:59:36;22.80;99.90
13682;DHT22;6913;49.892;7.936;2022-09-09T13:02:16;22.40;99.90
13682;DHT22;6913;49.892;7.936;2022-09-09T13:04:44;22.40;99.90
13682;DHT22;6913;49.892;7.936;2022-09-09T13:07:14;22.40;99.90
13682;DHT22;6913;49.892;7.936;2022-09-09T13:09:42;22.50;99.90
13682;DHT22;6913;49.892;7.936;2022-09-09T13:12:14;22.30;99.90
13682;DHT22;6913;49.892;7.936;2022-09-09T13:14:43;21.70;99.90
13682;DHT22;6913;49.892;7.936;2022-09-09T13:17:18;21.60;99.90
13682;DHT22;6913;49.892;7.936;2022-09-09T13:19:46;21.50;99.90
13682;DHT22;6913;49.892;7.936;2022-09-09T13:22:21;21.00;99.90
13682;DHT22;6913;49.892;7.936;2022-09-09T13:24:59;20.80;99.90
13682;DHT22;6913;49.892;7.936;2022-09-09T13:27:30;20.90;99.90
13682;DHT22;6913;49.892;7.936;2022-09-09T13:29:57;20.90;99.90
13682;DHT22;6913;49.892;7.936;2022-09-09T13:32:25;20.60;99.90
13682;DHT22;6913;49.892;7.936;2022-09-09T13:34:54;20.50;99.90
13682;DHT22;6913;49.892;7.936;2022-09-09T13:37:27;20.60;99.90
13682;DHT22;6913;49.892;7.936;2022-09-09T13:39:56;20.50;99.90
13682;DHT22;6913;49.892;7.936;2022-09-09T13:42:25;20.30;99.90
13682;DHT22;6913;49.892;7.936;2022-09-09T13:44:53;20.30;99.90
13682;DHT22;6913;49.892;7.936;2022-09-09T13:47:22;20.20;99.90
13682;DHT22;6913;49.892;7.936;2022-09-09T13:49:54;20.20;99.90
13682;DHT22;6913;49.892;7.936;2022-09-09T13:52:20;20.20;99.90
13682;DHT22;6913;49.892;7.936;2022-09-09T13:54:49;20.20;99.90
13682;DHT22;6913;49.892;7.936;2022-09-09T13:57:18;20.20;99.90
13682;DHT22;6913;49.892;7.936;2022-09-09T13:59:45;20.30;99.90
13682;DHT22;6913;49.892;7.936;2022-09-09T14:02:13;20.40;99.90
13682;DHT22;6913;49.892;7.936;2022-09-09T14:04:39;20.50;99.90
13682;DHT22;6913;49.892;7.936;2022-09-09T14:07:09;20.50;99.90
13682;DHT22;6913;49.892;7.936;2022-09-09T14:09:37;20.40;99.90
13682;DHT22;6913;49.892;7.936;2022-09-09T14:12:08;20.60;99.90
13682;DHT22;6913;49.892;7.936;2022-09-09T14:14:35;20.40;99.90
13682;DHT22;6913;49.892;7.936;2022-09-09T14:17:02;20.10;99.90
13682;DHT22;6913;49.892;7.936;2022-09-09T14:19:28;20.00;99.90
13682;DHT22;6913;49.892;7.936;2022-09-09T14:21:56;19.90;99.90
13682;DHT22;6913;49.892;7.936;2022-09-09T14:24:23;20.00;99.90
13682;DHT22;6913;49.892;7.936;2022-09-09T14:26:50;20.00;99.90
13682;DHT22;6913;49.892;7.936;2022-09-09T14:29:19;20.30;99.90
13682;DHT22;6913;49.892;7.936;2022-09-09T14:31:45;20.70;99.90
13682;DHT22;6913;49.892;7.936;2022-09-09T14:34:12;20.60;99.90
13682;DHT22;6913;49.892;7.936;2022-09-09T14:36:39;20.50;99.90
13682;DHT22;6913;49.892;7.936;2022-09-09T14:39:06;20.40;99.90
13682;DHT22;6913;49.892;7.936;2022-09-09T14:41:33;20.50;99.90
13682;DHT22;6913;49.892;7.936;2022-09-09T14:44:00;20.40;99.90
13682;DHT22;6913;49.892;7.936;2022-09-09T14:46:28;20.40;99.90
13682;DHT22;6913;49.892;7.936;2022-09-09T14:48:56;20.30;99.90
13682;DHT22;6913;49.892;7.936;2022-09-09T14:51:24;20.20;99.90
13682;DHT22;6913;49.892;7.936;2022-09-09T14:53:53;20.20;99.90
13682;DHT22;6913;49.892;7.936;2022-09-09T14:56:22;20.10;99.90
13682;DHT22;6913;49.892;7.936;2022-09-09T14:58:50;20.10;99.90
13682;DHT22;6913;49.892;7.936;2022-09-09T15:01:18;20.50;99.90
13682;DHT22;6913;49.892;7.936;2022-09-09T15:03:52;20.30;99.90
13682;DHT22;6913;49.892;7.936;2022-09-09T15:06:20;20.10;99.90
13682;DHT22;6913;49.892;7.936;2022-09-09T15:08:47;20.10;99.90
13682;DHT22;6913;49.892;7.936;2022-09-09T15:11:16;20.30;99.90
13682;DHT22;6913;49.892;7.936;2022-09-09T15:13:43;20.20;99.90
13682;DHT22;6913;49.892;7.936;2022-09-09T15:16:12;20.20;99.90
13682;DHT22;6913;49.892;7.936;2022-09-09T15:18:39;20.20;99.90
13682;DHT22;6913;49.892;7.936;2022-09-09T15:21:09;20.20;99.90
13682;DHT22;6913;49.892;7.936;2022-09-09T15:23:37;20.20;99.90
13682;DHT22;6913;49.892;7.936;2022-09-09T15:26:05;20.20;99.90
13682;DHT22;6913;49.892;7.936;2022-09-09T15:28:32;19.60;99.90
13682;DHT22;6913;49.892;7.936;2022-09-09T15:31:06;20.10;99.90
13682;DHT22;6913;49.892;7.936;2022-09-09T15:33:33;20.10;99.90
13682;DHT22;6913;49.892;7.936;2022-09-09T15:36:15;20.10;99.90
13682;DHT22;6913;49.892;7.936;2022-09-09T15:38:43;20.10;99.90
13682;DHT22;6913;49.892;7.936;2022-09-09T15:41:10;20.10;99.90
13682;DHT22;6913;49.892;7.936;2022-09-09T15:43:38;19.90;99.90
13682;DHT22;6913;49.892;7.936;2022-09-09T15:46:27;19.80;99.90
13682;DHT22;6913;49.892;7.936;2022-09-09T15:48:55;19.60;99.90
13682;DHT22;6913;49.892;7.936;2022-09-09T15:51:25;19.70;99.90
13682;DHT22;6913;49.892;7.936;2022-09-09T15:53:55;20.00;99.90
13682;DHT22;6913;49.892;7.936;2022-09-09T15:56:22;19.90;99.90
13682;DHT22;6913;49.892;7.936;2022-09-09T15:58:49;19.90;99.90
13682;DHT22;6913;49.892;7.936;2022-09-09T16:01:17;20.10;99.90
13682;DHT22;6913;49.892;7.936;2022-09-09T16:03:45;20.10;99.90
13682;DHT22;6913;49.892;7.936;2022-09-09T16:06:13;20.10;99.90
13682;DHT22;6913;49.892;7.936;2022-09-09T16:08:43;20.10;99.90
13682;DHT22;6913;49.892;7.936;2022-09-09T16:11:12;19.70;99.90
13682;DHT22;6913;49.892;7.936;2022-09-09T16:13:40;19.80;99.90
13682;DHT22;6913;49.892;7.936;2022-09-09T16:16:09;19.70;99.90
13682;DHT22;6913;49.892;7.936;2022-09-09T16:18:38;19.80;99.90